Time;durP1;ratioP1;P1;durP2;ratioP2;P2;SDS_P1;SDS_P2;PMS_P1;PMS_P2;Temp;Humidity;BMP_temperature;BMP_pressure;BME280_temperature;BME280_humidity;BME280_pressure;Samples;Min_cycle;Max_cycle;Signal;HPM_P1;HPM_P2
2022/11/28 00:00:05;;;;;;;10.48;8.40;;;;;;;;;;5080636;28;20412;-79
2022/11/28 00:02:32;;;;;;;13.70;8.90;;;;;;;;;;5080705;28;20433;-79
2022/11/28 00:04:59;;;;;;;10.35;8.10;;;;;;;;;;5079819;28;20419;-79
2022/11/28 00:07:27;;;;;;;12.73;8.38;;;;;;;;;;5077180;28;20408;-79
2022/11/28 00:09:53;;;;;;;11.68;8.70;;;;;;;;;;5076432;28;20412;-79
2022/11/28 00:12:19;;;;;;;12.18;8.98;;;;;;;;;;5077495;28;20418;-79
2022/11/28 00:14:46;;;;;;;14.80;9.55;;;;;;;;;;5076595;28;20410;-81
2022/11/28 00:17:14;;;;;;;15.60;9.90;;;;;;;;;;5078812;28;20409;-80
2022/11/28 00:19:40;;;;;;;15.52;10.70;;;;;;;;;;5077221;28;20418;-81
2022/11/28 00:22:07;;;;;;;15.85;10.95;;;;;;;;;;5076884;28;20406;-80
2022/11/28 00:24:33;;;;;;;11.70;9.60;;;;;;;;;;5080394;28;20410;-80
2022/11/28 00:27:00;;;;;;;14.32;10.38;;;;;;;;;;5076427;28;20766;-80
2022/11/28 00:29:26;;;;;;;11.87;9.17;;;;;;;;;;5058923;28;20422;-80
2022/11/28 00:31:53;;;;;;;14.35;9.98;;;;;;;;;;5079030;28;20406;-80
2022/11/28 00:34:21;;;;;;;13.40;9.90;;;;;;;;;;5079611;28;20415;-80
2022/11/28 00:36:48;;;;;;;12.10;9.82;;;;;;;;;;5077501;28;20434;-80
2022/11/28 00:39:15;;;;;;;15.52;9.70;;;;;;;;;;5076508;28;20410;-80
2022/11/28 00:41:41;;;;;;;18.75;9.98;;;;;;;;;;5077785;28;20423;-80
2022/11/28 00:44:07;;;;;;;16.25;11.18;;;;;;;;;;5078498;28;20410;-80
2022/11/28 00:46:34;;;;;;;15.45;10.68;;;;;;;;;;5075476;28;20411;-80
2022/11/28 00:49:01;;;;;;;15.50;11.43;;;;;;;;;;5061801;28;20404;-80
2022/11/28 00:51:30;;;;;;;17.40;11.63;;;;;;;;;;5074956;28;20916;-80
2022/11/28 00:53:58;;;;;;;20.02;11.52;;;;;;;;;;5076935;28;20432;-80
2022/11/28 00:56:25;;;;;;;18.60;12.30;;;;;;;;;;5071983;28;20417;-80
2022/11/28 00:58:52;;;;;;;17.70;12.00;;;;;;;;;;5077843;28;20509;-80
2022/11/28 01:01:21;;;;;;;19.27;12.07;;;;;;;;;;5075135;28;20877;-80
2022/11/28 01:03:50;;;;;;;20.93;12.00;;;;;;;;;;5075977;28;20985;-80
2022/11/28 01:06:20;;;;;;;17.23;12.73;;;;;;;;;;5083271;28;20431;-80
2022/11/28 01:08:48;;;;;;;14.63;11.80;;;;;;;;;;5078164;28;20423;-80
2022/11/28 01:11:14;;;;;;;13.40;10.95;;;;;;;;;;5081888;28;20425;-80
2022/11/28 01:13:41;;;;;;;12.73;9.90;;;;;;;;;;5081746;28;20434;-80
2022/11/28 01:16:08;;;;;;;14.25;9.20;;;;;;;;;;5080946;28;20423;-81
2022/11/28 01:18:35;;;;;;;13.73;9.73;;;;;;;;;;5080465;28;20430;-80
2022/11/28 01:21:02;;;;;;;15.75;9.88;;;;;;;;;;5078911;28;20417;-80
2022/11/28 01:23:29;;;;;;;15.70;10.00;;;;;;;;;;5082692;28;20430;-80
2022/11/28 01:25:56;;;;;;;12.20;9.37;;;;;;;;;;5083514;28;20446;-80
2022/11/28 01:28:23;;;;;;;12.13;9.32;;;;;;;;;;5084366;28;20411;-79
2022/11/28 01:30:49;;;;;;;14.82;10.13;;;;;;;;;;5082581;28;20414;-78
2022/11/28 01:33:15;;;;;;;12.43;9.25;;;;;;;;;;5078921;28;20434;-79
2022/11/28 01:35:42;;;;;;;11.63;9.15;;;;;;;;;;5084685;28;20410;-80
2022/11/28 01:38:08;;;;;;;14.10;8.70;;;;;;;;;;5075198;28;20442;-80
2022/11/28 01:40:35;;;;;;;14.23;10.00;;;;;;;;;;5077996;28;20421;-80
2022/11/28 01:43:02;;;;;;;15.32;9.70;;;;;;;;;;5082077;28;20428;-80
2022/11/28 01:45:30;;;;;;;17.23;11.20;;;;;;;;;;5083846;28;20451;-80
2022/11/28 01:47:57;;;;;;;16.87;11.80;;;;;;;;;;5083478;28;20428;-80
2022/11/28 01:50:25;;;;;;;17.23;10.82;;;;;;;;;;5080966;28;20418;-80
2022/11/28 01:52:53;;;;;;;19.60;11.18;;;;;;;;;;5076436;28;20431;-80
2022/11/28 01:55:21;;;;;;;15.93;10.40;;;;;;;;;;5076860;28;20497;-80
2022/11/28 01:57:47;;;;;;;14.35;10.40;;;;;;;;;;5083570;28;22657;-80
2022/11/28 02:00:18;;;;;;;15.70;10.80;;;;;;;;;;5083427;28;20490;-80
2022/11/28 02:02:46;;;;;;;15.30;10.93;;;;;;;;;;5080377;28;20416;-80
2022/11/28 02:05:13;;;;;;;18.10;11.90;;;;;;;;;;5080418;28;20931;-80
2022/11/28 02:07:39;;;;;;;21.87;13.47;;;;;;;;;;5080599;28;20423;-80
2022/11/28 02:10:07;;;;;;;24.98;13.48;;;;;;;;;;5084805;28;20414;-78
2022/11/28 02:12:48;;;;;;;22.53;14.60;;;;;;;;;;5080171;28;20903;-78
2022/11/28 02:15:23;;;;;;;21.83;14.63;;;;;;;;;;5078421;28;20427;-78
2022/11/28 02:17:58;;;;;;;17.98;11.68;;;;;;;;;;5081606;28;20414;-80
2022/11/28 02:20:55;;;;;;;23.75;11.52;;;;;;;;;;5052767;28;20789;-81
2022/11/28 02:23:24;;;;;;;18.15;11.63;;;;;;;;;;5020673;28;20465;-80
2022/11/28 02:26:03;;;;;;;20.42;11.65;;;;;;;;;;5049930;28;20434;-80
2022/11/28 02:28:37;;;;;;;18.50;11.45;;;;;;;;;;5079399;28;20427;-80
2022/11/28 02:31:09;;;;;;;19.63;11.82;;;;;;;;;;5075485;28;20423;-80
2022/11/28 02:33:42;;;;;;;15.48;10.77;;;;;;;;;;5079005;28;20422;-80
2022/11/28 02:36:11;;;;;;;16.23;10.88;;;;;;;;;;5080195;28;20427;-80
2022/11/28 02:38:42;;;;;;;19.17;11.90;;;;;;;;;;5077911;28;20429;-80
2022/11/28 02:41:15;;;;;;;19.63;11.40;;;;;;;;;;5083625;28;20417;-80
2022/11/28 02:43:44;;;;;;;17.55;12.10;;;;;;;;;;5082751;28;20414;-80
2022/11/28 02:46:12;;;;;;;19.35;11.80;;;;;;;;;;5073194;28;20429;-80
2022/11/28 02:48:45;;;;;;;19.08;11.02;;;;;;;;;;5079615;28;20455;-80
2022/11/28 02:51:14;;;;;;;14.15;9.77;;;;;;;;;;5077092;28;20437;-80
2022/11/28 02:53:44;;;;;;;13.65;8.70;;;;;;;;;;5074408;28;20427;-80
2022/11/28 02:56:11;;;;;;;14.07;8.80;;;;;;;;;;5082276;28;20516;-80
2022/11/28 02:58:37;;;;;;;12.48;8.48;;;;;;;;;;5078456;28;20424;-80
2022/11/28 03:01:05;;;;;;;12.52;8.32;;;;;;;;;;5080262;28;20418;-80
2022/11/28 03:03:37;;;;;;;13.40;8.20;;;;;;;;;;5072271;28;20495;-80
2022/11/28 03:06:09;;;;;;;12.10;7.55;;;;;;;;;;5083745;28;20432;-80
2022/11/28 03:08:41;;;;;;;11.17;7.43;;;;;;;;;;5079139;28;20454;-80
2022/11/28 03:11:12;;;;;;;10.07;7.40;;;;;;;;;;5083733;28;20415;-80
2022/11/28 03:13:41;;;;;;;11.45;7.53;;;;;;;;;;5082814;28;20421;-80
2022/11/28 03:16:14;;;;;;;10.07;7.90;;;;;;;;;;5084369;28;20422;-79
2022/11/28 03:18:42;;;;;;;11.13;7.50;;;;;;;;;;5081634;28;20417;-80
2022/11/28 03:21:11;;;;;;;10.00;6.80;;;;;;;;;;5077816;28;20404;-80
2022/11/28 03:23:42;;;;;;;10.65;6.90;;;;;;;;;;5074143;28;20442;-80
2022/11/28 03:26:12;;;;;;;12.02;8.70;;;;;;;;;;5085043;28;20485;-80
2022/11/28 03:28:40;;;;;;;9.93;7.78;;;;;;;;;;5079684;28;20884;-80
2022/11/28 03:31:08;;;;;;;10.20;8.32;;;;;;;;;;5081341;28;20433;-79
2022/11/28 03:33:36;;;;;;;10.88;8.05;;;;;;;;;;5060286;28;20425;-79
2022/11/28 03:36:04;;;;;;;13.82;7.93;;;;;;;;;;5085672;28;20912;-81
2022/11/28 03:38:34;;;;;;;10.07;7.82;;;;;;;;;;5077165;28;20423;-80
2022/11/28 03:41:03;;;;;;;10.95;8.27;;;;;;;;;;5077586;28;20412;-80
2022/11/28 03:43:32;;;;;;;13.97;7.80;;;;;;;;;;5081327;28;21007;-80
2022/11/28 03:46:00;;;;;;;12.65;8.27;;;;;;;;;;5078471;28;20434;-80
2022/11/28 03:48:29;;;;;;;12.18;8.70;;;;;;;;;;5077648;28;20809;-79
2022/11/28 03:50:58;;;;;;;12.23;8.10;;;;;;;;;;5079514;28;20424;-78
2022/11/28 03:53:27;;;;;;;13.10;8.43;;;;;;;;;;5080176;28;20417;-80
2022/11/28 03:55:59;;;;;;;12.10;7.80;;;;;;;;;;5078976;28;20426;-81
2022/11/28 03:58:29;;;;;;;12.17;7.73;;;;;;;;;;5079452;28;20408;-80
2022/11/28 04:00:59;;;;;;;12.43;7.82;;;;;;;;;;5078173;28;20424;-79
2022/11/28 04:03:31;;;;;;;12.53;8.40;;;;;;;;;;5082230;28;20496;-78
2022/11/28 04:05:59;;;;;;;11.10;8.10;;;;;;;;;;5075695;28;20419;-80
2022/11/28 04:08:27;;;;;;;10.45;8.15;;;;;;;;;;5080985;28;20918;-78
2022/11/28 04:10:56;;;;;;;10.95;8.00;;;;;;;;;;5076682;28;20433;-80
2022/11/28 04:13:26;;;;;;;10.65;8.50;;;;;;;;;;5079239;28;20797;-80
2022/11/28 04:15:54;;;;;;;10.40;8.20;;;;;;;;;;5083780;28;20427;-81
2022/11/28 04:18:24;;;;;;;11.23;8.63;;;;;;;;;;5074158;28;20410;-81
2022/11/28 04:20:53;;;;;;;12.38;8.98;;;;;;;;;;5079783;28;20423;-81
2022/11/28 04:23:21;;;;;;;11.30;9.15;;;;;;;;;;5080221;28;20787;-80
2022/11/28 04:25:50;;;;;;;12.32;9.00;;;;;;;;;;5076899;28;20430;-81
2022/11/28 04:28:18;;;;;;;12.50;9.43;;;;;;;;;;5082319;28;20877;-81
2022/11/28 04:30:47;;;;;;;12.70;9.60;;;;;;;;;;5072991;28;20956;-80
2022/11/28 04:33:15;;;;;;;13.15;9.15;;;;;;;;;;5073874;28;20923;-79
2022/11/28 04:35:48;;;;;;;16.50;9.00;;;;;;;;;;5080671;28;20788;-79
2022/11/28 04:38:14;;;;;;;13.73;9.57;;;;;;;;;;5078548;28;20409;-79
2022/11/28 04:40:43;;;;;;;14.27;9.80;;;;;;;;;;5060154;28;20454;-79
2022/11/28 04:43:12;;;;;;;14.85;9.25;;;;;;;;;;5083826;28;20885;-80
2022/11/28 04:45:40;;;;;;;12.18;8.95;;;;;;;;;;5083990;28;20422;-81
2022/11/28 04:48:07;;;;;;;15.23;9.70;;;;;;;;;;5085709;28;20413;-79
2022/11/28 04:50:39;;;;;;;13.68;9.30;;;;;;;;;;5087174;28;20421;-81
2022/11/28 04:53:09;;;;;;;14.40;8.88;;;;;;;;;;5079487;28;20426;-81
2022/11/28 04:55:39;;;;;;;15.70;9.50;;;;;;;;;;5066340;28;20930;-81
2022/11/28 04:58:08;;;;;;;13.07;9.07;;;;;;;;;;5085893;28;20415;-79
2022/11/28 05:00:36;;;;;;;15.20;9.18;;;;;;;;;;5081877;28;20437;-79
2022/11/28 05:03:03;;;;;;;14.45;9.18;;;;;;;;;;5078041;28;20434;-81
2022/11/28 05:05:31;;;;;;;13.50;9.70;;;;;;;;;;5077724;28;20431;-80
2022/11/28 05:07:58;;;;;;;14.95;9.70;;;;;;;;;;5080200;28;20427;-80
2022/11/28 05:10:24;;;;;;;13.50;9.00;;;;;;;;;;5085257;28;20415;-80
2022/11/28 05:12:51;;;;;;;15.32;10.13;;;;;;;;;;5081449;28;20429;-80
2022/11/28 05:15:17;;;;;;;17.33;10.15;;;;;;;;;;5080339;28;20423;-80
2022/11/28 05:17:44;;;;;;;13.30;9.55;;;;;;;;;;5081291;28;20483;-80
2022/11/28 05:20:11;;;;;;;17.10;10.20;;;;;;;;;;5083176;28;20419;-80
2022/11/28 05:22:38;;;;;;;17.00;10.85;;;;;;;;;;5084203;28;20425;-80
2022/11/28 05:25:05;;;;;;;17.98;10.15;;;;;;;;;;5090474;28;20421;-79
2022/11/28 05:27:31;;;;;;;18.45;11.45;;;;;;;;;;5076333;28;20440;-80
2022/11/28 05:29:58;;;;;;;19.33;11.50;;;;;;;;;;5078973;28;20419;-80
2022/11/28 05:32:24;;;;;;;16.80;10.98;;;;;;;;;;5077810;28;20434;-80
2022/11/28 05:34:50;;;;;;;17.77;11.77;;;;;;;;;;5087353;28;20410;-80
2022/11/28 05:37:17;;;;;;;17.98;11.02;;;;;;;;;;5079188;28;20920;-80
2022/11/28 05:39:45;;;;;;;17.45;11.75;;;;;;;;;;5085551;28;20410;-80
2022/11/28 05:42:11;;;;;;;16.90;11.55;;;;;;;;;;5084755;28;20419;-80
2022/11/28 05:44:38;;;;;;;18.98;11.80;;;;;;;;;;5086749;28;20410;-80
2022/11/28 05:47:04;;;;;;;15.95;10.20;;;;;;;;;;5079143;28;20515;-80
2022/11/28 05:49:33;;;;;;;14.88;11.00;;;;;;;;;;5086179;28;20422;-80
2022/11/28 05:51:59;;;;;;;14.65;10.07;;;;;;;;;;5075227;28;20435;-80
2022/11/28 05:54:26;;;;;;;14.70;9.80;;;;;;;;;;5077830;28;20428;-80
2022/11/28 05:56:54;;;;;;;16.67;10.25;;;;;;;;;;5077296;28;20921;-80
2022/11/28 05:59:20;;;;;;;11.02;8.70;;;;;;;;;;5078116;28;20785;-80
2022/11/28 06:01:46;;;;;;;12.85;9.55;;;;;;;;;;5079059;28;20426;-80
2022/11/28 06:04:12;;;;;;;12.57;10.00;;;;;;;;;;5079536;28;20425;-80
2022/11/28 06:06:39;;;;;;;14.23;9.40;;;;;;;;;;5073518;28;20417;-80
2022/11/28 06:09:06;;;;;;;13.25;9.63;;;;;;;;;;5084052;28;20416;-80
2022/11/28 06:11:33;;;;;;;15.07;9.75;;;;;;;;;;5082326;28;20430;-79
2022/11/28 06:14:01;;;;;;;12.82;10.15;;;;;;;;;;5078747;28;20400;-79
2022/11/28 06:16:29;;;;;;;14.00;9.27;;;;;;;;;;5079610;28;20427;-79
2022/11/28 06:18:56;;;;;;;14.15;9.70;;;;;;;;;;5078028;28;20430;-80
2022/11/28 06:21:22;;;;;;;13.60;9.20;;;;;;;;;;5073887;28;20922;-80
2022/11/28 06:23:49;;;;;;;13.50;9.65;;;;;;;;;;5077043;28;20431;-80
2022/11/28 06:26:16;;;;;;;15.27;10.00;;;;;;;;;;5079944;28;20423;-80
2022/11/28 06:28:43;;;;;;;12.18;9.27;;;;;;;;;;5078674;28;20434;-80
2022/11/28 06:31:11;;;;;;;12.43;9.02;;;;;;;;;;5079342;28;20484;-80
2022/11/28 06:33:37;;;;;;;14.63;9.35;;;;;;;;;;5066311;28;20409;-80
2022/11/28 06:36:05;;;;;;;12.45;9.43;;;;;;;;;;5076955;28;20450;-80
2022/11/28 06:38:32;;;;;;;12.35;8.68;;;;;;;;;;5072127;28;20425;-80
2022/11/28 06:40:59;;;;;;;13.13;9.63;;;;;;;;;;5075528;28;20424;-79
2022/11/28 06:43:25;;;;;;;13.23;9.38;;;;;;;;;;5071116;28;20914;-80
2022/11/28 06:45:52;;;;;;;12.43;9.68;;;;;;;;;;5076399;28;20416;-80
2022/11/28 06:48:19;;;;;;;11.07;9.88;;;;;;;;;;5078558;28;20430;-80
2022/11/28 06:50:46;;;;;;;12.20;9.40;;;;;;;;;;5071924;28;20935;-80
2022/11/28 06:53:13;;;;;;;13.85;9.73;;;;;;;;;;5076199;28;20803;-80
2022/11/28 06:55:40;;;;;;;14.95;9.20;;;;;;;;;;5078122;28;20500;-79
2022/11/28 06:58:07;;;;;;;13.48;9.82;;;;;;;;;;5079839;28;20850;-79
2022/11/28 07:00:34;;;;;;;12.00;9.90;;;;;;;;;;5079621;28;20936;-80
2022/11/28 07:03:02;;;;;;;12.18;9.95;;;;;;;;;;5075611;28;20410;-80
2022/11/28 07:05:30;;;;;;;15.35;10.35;;;;;;;;;;5069858;28;20645;-79
2022/11/28 07:07:57;;;;;;;14.32;10.48;;;;;;;;;;5079836;28;20410;-78
2022/11/28 07:10:24;;;;;;;14.52;10.15;;;;;;;;;;5076805;28;20415;-80
2022/11/28 07:12:54;;;;;;;15.27;11.40;;;;;;;;;;5076250;28;20956;-81
2022/11/28 07:15:20;;;;;;;14.68;11.20;;;;;;;;;;5077456;28;20427;-78
2022/11/28 07:17:46;;;;;;;14.23;11.35;;;;;;;;;;5080449;28;20402;-80
2022/11/28 07:20:13;;;;;;;14.40;11.00;;;;;;;;;;5076972;28;21008;-79
2022/11/28 07:22:42;;;;;;;18.90;11.38;;;;;;;;;;5080471;28;20455;-78
2022/11/28 07:25:09;;;;;;;14.45;10.65;;;;;;;;;;5073781;28;20497;-81
2022/11/28 07:27:35;;;;;;;14.90;11.30;;;;;;;;;;5077046;28;20942;-80
2022/11/28 07:30:03;;;;;;;14.95;10.50;;;;;;;;;;5077722;28;20426;-80
2022/11/28 07:32:29;;;;;;;15.50;11.20;;;;;;;;;;5071118;28;20427;-81
2022/11/28 07:34:56;;;;;;;15.38;11.35;;;;;;;;;;5076941;28;20423;-81
2022/11/28 07:37:22;;;;;;;15.10;11.20;;;;;;;;;;5080367;28;20440;-79
2022/11/28 07:39:50;;;;;;;14.70;10.90;;;;;;;;;;5072966;28;20442;-80
2022/11/28 07:42:17;;;;;;;15.82;11.30;;;;;;;;;;5077037;28;20789;-80
2022/11/28 07:44:43;;;;;;;13.73;10.70;;;;;;;;;;5077291;28;20419;-82
2022/11/28 07:47:10;;;;;;;15.20;11.70;;;;;;;;;;5075758;28;20415;-80
2022/11/28 07:49:36;;;;;;;16.58;11.30;;;;;;;;;;5069682;28;20420;-81
2022/11/28 07:52:02;;;;;;;18.20;10.93;;;;;;;;;;5078157;28;20425;-80
2022/11/28 07:54:29;;;;;;;18.25;11.60;;;;;;;;;;5074393;28;20439;-80
2022/11/28 07:56:57;;;;;;;16.92;11.48;;;;;;;;;;5078445;28;20427;-81
2022/11/28 07:59:23;;;;;;;15.75;11.07;;;;;;;;;;5073894;28;20429;-80
2022/11/28 08:01:52;;;;;;;17.80;12.57;;;;;;;;;;5076608;28;20415;-80
2022/11/28 08:04:18;;;;;;;16.55;11.35;;;;;;;;;;5076270;28;20422;-80
2022/11/28 08:06:45;;;;;;;14.70;11.75;;;;;;;;;;5074983;28;20931;-79
2022/11/28 08:09:11;;;;;;;16.17;11.20;;;;;;;;;;5076925;28;20400;-80
2022/11/28 08:11:39;;;;;;;18.70;12.63;;;;;;;;;;5054289;28;20824;-80
2022/11/28 08:14:07;;;;;;;16.55;11.43;;;;;;;;;;5071001;28;20415;-80
2022/11/28 08:16:35;;;;;;;16.02;11.18;;;;;;;;;;5073554;28;20794;-79
2022/11/28 08:19:01;;;;;;;16.42;11.40;;;;;;;;;;5080715;28;20400;-79
2022/11/28 08:21:28;;;;;;;18.27;12.30;;;;;;;;;;5080060;28;20562;-80
2022/11/28 08:23:56;;;;;;;18.08;12.65;;;;;;;;;;5084072;28;20432;-79
2022/11/28 08:26:24;;;;;;;17.38;12.23;;;;;;;;;;5079502;28;20889;-80
2022/11/28 08:28:52;;;;;;;19.17;12.80;;;;;;;;;;5080390;28;20925;-80
2022/11/28 08:31:21;;;;;;;19.20;13.30;;;;;;;;;;5082673;28;20426;-80
2022/11/28 08:33:49;;;;;;;18.00;12.93;;;;;;;;;;5072817;28;20451;-80
2022/11/28 08:36:16;;;;;;;18.97;12.13;;;;;;;;;;5060776;28;20433;-80
2022/11/28 08:38:44;;;;;;;20.33;14.13;;;;;;;;;;5072572;28;20939;-79
2022/11/28 08:41:11;;;;;;;22.87;14.33;;;;;;;;;;5073271;28;20426;-80
2022/11/28 08:43:38;;;;;;;24.45;15.30;;;;;;;;;;5081196;28;20917;-80
2022/11/28 08:46:05;;;;;;;23.87;16.07;;;;;;;;;;5078269;28;20423;-80
2022/11/28 08:48:34;;;;;;;22.50;14.90;;;;;;;;;;5079965;28;20434;-80
2022/11/28 08:51:00;;;;;;;24.70;15.85;;;;;;;;;;5077167;28;20418;-79
2022/11/28 08:53:26;;;;;;;18.80;14.00;;;;;;;;;;5080564;28;20428;-80
2022/11/28 08:55:53;;;;;;;23.95;15.05;;;;;;;;;;5076111;28;20430;-80
2022/11/28 08:58:19;;;;;;;24.45;15.80;;;;;;;;;;5079342;28;20415;-79
2022/11/28 09:00:46;;;;;;;21.25;14.77;;;;;;;;;;5078848;28;20460;-79
2022/11/28 09:03:13;;;;;;;23.00;15.43;;;;;;;;;;5074473;28;20431;-79
2022/11/28 09:05:44;;;;;;;27.10;16.23;;;;;;;;;;5071097;28;20422;-80
2022/11/28 09:08:10;;;;;;;25.33;17.10;;;;;;;;;;5086675;28;20856;-80
2022/11/28 09:10:37;;;;;;;27.50;17.65;;;;;;;;;;5079002;28;21971;-80
2022/11/28 09:13:04;;;;;;;25.02;16.85;;;;;;;;;;5076148;28;20430;-80
2022/11/28 09:15:31;;;;;;;27.55;16.02;;;;;;;;;;5076712;28;20426;-80
2022/11/28 09:17:57;;;;;;;24.65;16.85;;;;;;;;;;5077084;28;20495;-80
2022/11/28 09:20:24;;;;;;;26.08;17.77;;;;;;;;;;5076922;28;20425;-80
2022/11/28 09:22:51;;;;;;;26.37;17.70;;;;;;;;;;5077319;28;20429;-80
2022/11/28 09:25:18;;;;;;;23.40;16.70;;;;;;;;;;5075420;28;20439;-80
2022/11/28 09:27:44;;;;;;;27.98;19.20;;;;;;;;;;5075173;28;20459;-80
2022/11/28 09:30:11;;;;;;;32.63;19.70;;;;;;;;;;5078973;28;20417;-80
2022/11/28 09:32:37;;;;;;;25.38;16.55;;;;;;;;;;5065988;28;20928;-80
2022/11/28 09:35:04;;;;;;;26.23;17.20;;;;;;;;;;5078546;28;20412;-80
2022/11/28 09:37:30;;;;;;;23.98;15.95;;;;;;;;;;5080445;28;20433;-80
2022/11/28 09:39:58;;;;;;;26.83;16.45;;;;;;;;;;5084452;28;20408;-79
2022/11/28 09:42:28;;;;;;;26.13;17.80;;;;;;;;;;5081449;28;20419;-80
2022/11/28 09:44:58;;;;;;;27.77;19.00;;;;;;;;;;5081974;28;20421;-79
2022/11/28 09:47:28;;;;;;;28.65;18.20;;;;;;;;;;5059697;28;20941;-79
2022/11/28 09:49:58;;;;;;;26.83;18.07;;;;;;;;;;5078336;28;20412;-80
2022/11/28 09:52:29;;;;;;;27.27;17.60;;;;;;;;;;5080464;28;20926;-79
2022/11/28 09:55:03;;;;;;;30.20;18.20;;;;;;;;;;5079755;28;20420;-80
2022/11/28 09:57:33;;;;;;;24.92;18.08;;;;;;;;;;5073413;28;20426;-80
2022/11/28 10:00:00;;;;;;;23.70;16.67;;;;;;;;;;5063706;28;20407;-79
2022/11/28 10:02:29;;;;;;;26.10;17.17;;;;;;;;;;5081721;28;20432;-80
2022/11/28 10:05:00;;;;;;;24.95;16.42;;;;;;;;;;5082497;28;20436;-80
2022/11/28 10:07:31;;;;;;;23.77;15.88;;;;;;;;;;5080341;28;20431;-78
2022/11/28 10:10:03;;;;;;;25.95;17.27;;;;;;;;;;5065579;28;20420;-78
2022/11/28 10:12:37;;;;;;;22.00;16.00;;;;;;;;;;5083882;28;20421;-78
2022/11/28 10:15:11;;;;;;;23.52;16.67;;;;;;;;;;5081487;28;20411;-80
2022/11/28 10:17:43;;;;;;;24.38;17.27;;;;;;;;;;5084256;28;20410;-78
2022/11/28 10:20:12;;;;;;;26.25;18.23;;;;;;;;;;5079757;28;20493;-79
2022/11/28 10:22:41;;;;;;;27.52;18.58;;;;;;;;;;5074408;28;20427;-78
2022/11/28 10:25:15;;;;;;;29.13;19.65;;;;;;;;;;5058883;28;20946;-78
2022/11/28 10:27:42;;;;;;;27.35;19.27;;;;;;;;;;5081648;28;20426;-78
2022/11/28 10:30:14;;;;;;;31.05;20.00;;;;;;;;;;5078742;28;20537;-78
2022/11/28 10:32:42;;;;;;;28.27;19.77;;;;;;;;;;5075649;28;20512;-78
2022/11/28 10:35:13;;;;;;;24.35;17.55;;;;;;;;;;5080313;28;20433;-78
2022/11/28 10:37:40;;;;;;;29.58;18.58;;;;;;;;;;5083359;28;20956;-78
2022/11/28 10:40:16;;;;;;;24.85;16.10;;;;;;;;;;5074428;28;21004;-79
2022/11/28 10:42:46;;;;;;;26.67;15.73;;;;;;;;;;5082954;28;20412;-78
2022/11/28 10:45:17;;;;;;;25.02;16.77;;;;;;;;;;5078244;28;20434;-78
2022/11/28 10:47:58;;;;;;;24.05;16.10;;;;;;;;;;5079505;28;20791;-78
2022/11/28 10:50:29;;;;;;;22.75;15.23;;;;;;;;;;5069236;28;20432;-79
2022/11/28 10:53:00;;;;;;;22.07;14.47;;;;;;;;;;5075467;28;20484;-78
2022/11/28 10:55:34;;;;;;;19.85;12.98;;;;;;;;;;5077339;28;20413;-81
2022/11/28 10:58:04;;;;;;;18.98;13.27;;;;;;;;;;5079417;28;20434;-79
2022/11/28 11:00:30;;;;;;;22.63;14.57;;;;;;;;;;5073232;28;20427;-80
2022/11/28 11:02:59;;;;;;;21.77;14.57;;;;;;;;;;5076272;28;20431;-80
2022/11/28 11:05:27;;;;;;;27.95;15.98;;;;;;;;;;5080454;28;20416;-80
2022/11/28 11:07:56;;;;;;;25.88;16.20;;;;;;;;;;5080143;28;20428;-83
2022/11/28 11:10:25;;;;;;;27.98;18.33;;;;;;;;;;5079424;28;20430;-80
2022/11/28 11:12:53;;;;;;;31.30;19.17;;;;;;;;;;5077943;28;20420;-79
2022/11/28 11:15:24;;;;;;;31.70;19.58;;;;;;;;;;5075872;28;20420;-78
2022/11/28 11:17:50;;;;;;;29.00;19.65;;;;;;;;;;5076176;28;20488;-78
2022/11/28 11:20:32;;;;;;;30.50;19.30;;;;;;;;;;5073039;28;20428;-78
2022/11/28 11:22:59;;;;;;;28.38;18.65;;;;;;;;;;5076148;28;20431;-78
2022/11/28 11:25:27;;;;;;;29.70;20.17;;;;;;;;;;5073618;28;20424;-77
2022/11/28 11:27:56;;;;;;;29.00;17.67;;;;;;;;;;5078354;28;20428;-77
2022/11/28 11:30:27;;;;;;;27.08;16.65;;;;;;;;;;5080820;28;20427;-78
2022/11/28 11:32:55;;;;;;;23.92;16.80;;;;;;;;;;5081036;28;20411;-78
2022/11/28 11:35:22;;;;;;;22.27;15.60;;;;;;;;;;5076396;28;20409;-78
2022/11/28 11:37:49;;;;;;;24.05;15.68;;;;;;;;;;5076115;28;20912;-78
2022/11/28 11:40:22;;;;;;;21.00;14.37;;;;;;;;;;5077234;28;20415;-80
2022/11/28 11:42:53;;;;;;;22.27;15.88;;;;;;;;;;5079648;28;20431;-77
2022/11/28 11:45:26;;;;;;;20.77;15.20;;;;;;;;;;5075225;28;20964;-80
2022/11/28 11:47:52;;;;;;;21.55;16.08;;;;;;;;;;5077328;28;20483;-80
2022/11/28 11:50:20;;;;;;;26.43;16.80;;;;;;;;;;5080238;28;20519;-77
2022/11/28 11:53:00;;;;;;;25.60;17.25;;;;;;;;;;5060832;28;20431;-79
2022/11/28 11:55:28;;;;;;;25.05;17.00;;;;;;;;;;5076761;28;20426;-79
2022/11/28 11:57:55;;;;;;;26.13;18.48;;;;;;;;;;5078611;28;20411;-79
2022/11/28 12:00:23;;;;;;;23.33;17.17;;;;;;;;;;5073052;28;20424;-79
2022/11/28 12:02:52;;;;;;;26.10;18.48;;;;;;;;;;5078901;28;20431;-79
2022/11/28 12:05:20;;;;;;;24.88;18.77;;;;;;;;;;5075665;28;20443;-79
2022/11/28 12:07:50;;;;;;;26.50;18.73;;;;;;;;;;5078881;28;20428;-79
2022/11/28 12:10:18;;;;;;;30.83;20.30;;;;;;;;;;5076341;28;20414;-79
2022/11/28 12:12:44;;;;;;;25.95;19.27;;;;;;;;;;5059761;28;20443;-79
2022/11/28 12:15:20;;;;;;;28.30;19.17;;;;;;;;;;5075753;28;20425;-79
2022/11/28 12:17:53;;;;;;;30.67;20.47;;;;;;;;;;5075386;28;20426;-79
2022/11/28 12:20:29;;;;;;;29.65;20.80;;;;;;;;;;5074516;28;20423;-79
2022/11/28 12:23:00;;;;;;;28.42;19.23;;;;;;;;;;5072826;28;20431;-79
2022/11/28 12:25:33;;;;;;;28.63;18.67;;;;;;;;;;5073672;28;20424;-79
2022/11/28 12:28:06;;;;;;;27.10;19.00;;;;;;;;;;5077200;28;20935;-78
2022/11/28 12:30:39;;;;;;;28.40;18.67;;;;;;;;;;5077342;28;20434;-79
2022/11/28 12:33:15;;;;;;;26.65;18.08;;;;;;;;;;5078991;28;20788;-78
2022/11/28 12:35:44;;;;;;;26.07;19.53;;;;;;;;;;5074351;28;20506;-78
2022/11/28 12:38:17;;;;;;;25.75;19.42;;;;;;;;;;5072996;28;20435;-79
2022/11/28 12:40:50;;;;;;;27.15;18.63;;;;;;;;;;5076972;28;20957;-79
2022/11/28 12:43:22;;;;;;;27.97;19.37;;;;;;;;;;5073663;28;20441;-78
2022/11/28 12:45:54;;;;;;;28.10;20.48;;;;;;;;;;5070002;28;20430;-78
2022/11/28 12:48:29;;;;;;;24.67;17.85;;;;;;;;;;5071707;28;20916;-78
2022/11/28 12:51:00;;;;;;;24.33;18.95;;;;;;;;;;5072363;28;20419;-79
2022/11/28 12:53:33;;;;;;;25.30;19.40;;;;;;;;;;5077271;28;20510;-80
2022/11/28 12:56:06;;;;;;;24.30;17.73;;;;;;;;;;5076767;28;20510;-80
2022/11/28 12:58:36;;;;;;;25.25;17.58;;;;;;;;;;5084122;28;20421;-78
2022/11/28 13:01:11;;;;;;;22.27;15.90;;;;;;;;;;5084006;28;20424;-79
2022/11/28 13:03:41;;;;;;;26.00;17.02;;;;;;;;;;5081019;28;20427;-78
2022/11/28 13:06:19;;;;;;;24.17;17.17;;;;;;;;;;5075479;28;20987;-78
2022/11/28 13:08:58;;;;;;;24.52;18.15;;;;;;;;;;5083569;28;20436;-79
2022/11/28 13:11:35;;;;;;;24.92;18.85;;;;;;;;;;5078335;28;20419;-81
2022/11/28 13:14:04;;;;;;;25.95;18.67;;;;;;;;;;5073913;28;20408;-82
2022/11/28 13:16:33;;;;;;;29.20;19.40;;;;;;;;;;5071672;28;20460;-78
2022/11/28 13:19:03;;;;;;;25.50;18.13;;;;;;;;;;5085788;28;20422;-79
2022/11/28 13:21:36;;;;;;;26.42;18.83;;;;;;;;;;5083804;28;20438;-78
2022/11/28 13:24:05;;;;;;;26.30;18.17;;;;;;;;;;5079949;28;20444;-79
2022/11/28 13:26:36;;;;;;;24.95;18.25;;;;;;;;;;5084232;28;20435;-81
2022/11/28 13:29:11;;;;;;;24.47;19.03;;;;;;;;;;5080571;28;20407;-83
2022/11/28 13:31:40;;;;;;;24.58;18.35;;;;;;;;;;5082217;28;20432;-79
2022/11/28 13:34:12;;;;;;;24.57;18.73;;;;;;;;;;5083032;28;20779;-82
2022/11/28 13:36:42;;;;;;;29.10;18.27;;;;;;;;;;5079328;28;20983;-78
2022/11/28 13:39:12;;;;;;;29.00;18.20;;;;;;;;;;5080883;28;20496;-79
2022/11/28 13:41:42;;;;;;;25.42;17.58;;;;;;;;;;5085249;28;20453;-80
2022/11/28 13:44:14;;;;;;;24.00;18.10;;;;;;;;;;5086113;28;20425;-81
2022/11/28 13:46:41;;;;;;;27.73;17.90;;;;;;;;;;5083247;28;20449;-81
2022/11/28 13:49:10;;;;;;;23.50;17.35;;;;;;;;;;5080828;28;20407;-78
2022/11/28 13:51:37;;;;;;;23.63;17.98;;;;;;;;;;5080112;28;20431;-79
2022/11/28 13:54:34;;;;;;;27.05;17.95;;;;;;;;;;5078829;28;20404;-78
2022/11/28 13:57:08;;;;;;;25.40;17.10;;;;;;;;;;5005922;28;20440;-78
2022/11/28 13:59:35;;;;;;;23.80;17.60;;;;;;;;;;5068926;28;20449;-79
2022/11/28 14:02:03;;;;;;;26.73;18.15;;;;;;;;;;5078468;28;20517;-80
2022/11/28 14:04:31;;;;;;;27.70;18.02;;;;;;;;;;5074138;28;20420;-80
2022/11/28 14:07:01;;;;;;;27.10;17.55;;;;;;;;;;5075919;28;20432;-78
2022/11/28 14:09:32;;;;;;;25.15;17.60;;;;;;;;;;5075866;28;20429;-80
2022/11/28 14:12:13;;;;;;;23.80;16.70;;;;;;;;;;5077720;28;20426;-79
2022/11/28 14:14:55;;;;;;;26.02;17.80;;;;;;;;;;5077092;28;20424;-81
2022/11/28 14:17:32;;;;;;;27.07;19.10;;;;;;;;;;5073432;28;20424;-80
2022/11/28 14:20:04;;;;;;;26.10;18.60;;;;;;;;;;5072204;28;20424;-78
2022/11/28 14:22:37;;;;;;;27.80;19.55;;;;;;;;;;5073674;28;20439;-78
2022/11/28 14:25:08;;;;;;;25.08;18.67;;;;;;;;;;5074570;28;20466;-78
2022/11/28 14:27:36;;;;;;;27.38;19.77;;;;;;;;;;5078368;28;20961;-78
2022/11/28 14:30:04;;;;;;;26.67;19.70;;;;;;;;;;5081598;28;20437;-79